createdAt,value
2023-03-10T00:00:49.579Z,6.75
2023-03-10T00:03:17.229Z,7.80
2023-03-10T00:05:50.232Z,7.90
2023-03-10T00:08:17.832Z,8.32
2023-03-10T00:10:45.396Z,9.63
2023-03-10T00:13:14.348Z,6.93
2023-03-10T00:15:42.054Z,8.73
2023-03-10T00:18:09.974Z,8.03
2023-03-10T00:20:37.511Z,7.70
2023-03-10T00:23:05.069Z,8.05
2023-03-10T00:25:32.633Z,9.80
2023-03-10T00:28:00.202Z,8.50
2023-03-10T00:30:30.659Z,8.57
2023-03-10T00:33:00.217Z,9.32
2023-03-10T00:35:27.888Z,11.18
2023-03-10T00:37:56.024Z,11.23
2023-03-10T00:40:23.800Z,8.18
2023-03-10T00:42:51.376Z,8.43
2023-03-10T00:45:19.115Z,7.60
2023-03-10T00:47:48.022Z,6.75
2023-03-10T00:50:15.571Z,7.15
2023-03-10T00:52:43.129Z,13.60
2023-03-10T00:55:10.906Z,7.40
2023-03-10T00:57:38.509Z,8.85
2023-03-10T01:00:08.279Z,10.35
2023-03-10T01:02:35.844Z,11.48
2023-03-10T01:05:04.984Z,7.95
2023-03-10T01:07:32.543Z,11.00
2023-03-10T01:10:00.109Z,8.77
2023-03-10T01:12:27.704Z,9.50
2023-03-10T01:14:55.254Z,6.35
2023-03-10T01:17:22.812Z,11.65
2023-03-10T01:19:50.356Z,6.53
2023-03-10T01:22:19.319Z,7.85
2023-03-10T01:24:46.977Z,7.90
2023-03-10T01:27:14.545Z,7.47
2023-03-10T01:29:42.154Z,8.20
2023-03-10T01:32:09.728Z,8.17
2023-03-10T01:34:37.306Z,8.55
2023-03-10T01:37:04.859Z,9.00
2023-03-10T01:39:33.784Z,11.48
2023-03-10T01:42:01.396Z,8.45
2023-03-10T01:44:28.923Z,10.50
2023-03-10T01:46:59.192Z,8.90
2023-03-10T01:49:30.785Z,8.45
2023-03-10T01:52:00.982Z,6.28
2023-03-10T01:54:31.410Z,9.15
2023-03-10T01:57:00.672Z,7.77
2023-03-10T01:59:28.749Z,8.25
2023-03-10T02:01:56.889Z,10.15
2023-03-10T02:04:28.716Z,7.78
2023-03-10T02:06:57.656Z,7.45
2023-03-10T02:09:25.745Z,7.87
2023-03-10T02:11:53.696Z,16.30
2023-03-10T02:14:22.640Z,10.82
2023-03-10T02:16:50.860Z,8.35
2023-03-10T02:19:24.865Z,8.00
2023-03-10T02:21:55.452Z,8.23
2023-03-10T02:24:25.999Z,9.05
2023-03-10T02:26:56.982Z,13.75
2023-03-10T02:29:27.968Z,5.57
2023-03-10T02:31:57.183Z,11.52
2023-03-10T02:34:25.294Z,9.57
2023-03-10T02:36:52.858Z,11.23
2023-03-10T02:39:20.481Z,10.23
2023-03-10T02:41:48.080Z,8.07
2023-03-10T02:44:17.863Z,7.15
2023-03-10T02:46:47.030Z,9.13
2023-03-10T02:49:14.705Z,9.82
2023-03-10T02:51:43.104Z,8.30
2023-03-10T02:54:11.076Z,7.72
2023-03-10T02:56:38.878Z,11.32
2023-03-10T02:59:06.934Z,6.90
2023-03-10T03:01:34.609Z,10.65
2023-03-10T03:04:03.836Z,11.60
2023-03-10T03:06:31.650Z,10.43
2023-03-10T03:08:59.384Z,11.23
2023-03-10T03:11:27.053Z,10.13
2023-03-10T03:13:54.841Z,8.27
2023-03-10T03:16:22.792Z,7.65
2023-03-10T03:18:50.389Z,7.85
2023-03-10T03:21:19.385Z,7.50
2023-03-10T03:23:47.363Z,8.53
2023-03-10T03:26:15.995Z,16.60
2023-03-10T03:28:45.257Z,10.32
2023-03-10T03:31:16.905Z,12.65
2023-03-10T03:33:44.866Z,10.20
2023-03-10T03:36:12.536Z,9.27
2023-03-10T03:38:41.658Z,9.63
2023-03-10T03:41:09.609Z,12.50
2023-03-10T03:43:37.478Z,10.15
2023-03-10T03:46:05.542Z,9.10
2023-03-10T03:48:34.799Z,10.37
2023-03-10T03:51:03.073Z,9.10
2023-03-10T03:53:31.204Z,10.77
2023-03-10T03:56:00.292Z,9.98
2023-03-10T03:58:27.856Z,14.73
2023-03-10T04:00:55.418Z,13.07
2023-03-10T04:03:23.206Z,11.18
2023-03-10T04:05:50.746Z,11.48
2023-03-10T04:08:18.340Z,11.82
2023-03-10T04:10:50.948Z,11.80
2023-03-10T04:13:20.012Z,11.20
2023-03-10T04:15:47.730Z,11.13
2023-03-10T04:18:15.320Z,9.80
2023-03-10T04:20:42.898Z,10.80
2023-03-10T04:23:10.428Z,12.02
2023-03-10T04:25:37.982Z,13.57
2023-03-10T04:28:05.599Z,15.95
2023-03-10T04:30:34.555Z,14.43
2023-03-10T04:33:02.364Z,12.25
2023-03-10T04:35:30.377Z,13.40
2023-03-10T04:37:58.197Z,10.13
2023-03-10T04:40:25.738Z,14.15
2023-03-10T04:42:53.331Z,16.67
2023-03-10T04:45:20.851Z,18.10
2023-03-10T04:47:49.778Z,13.80
2023-03-10T04:50:17.575Z,13.57
2023-03-10T04:52:45.452Z,13.38
2023-03-10T04:55:13.401Z,11.90
2023-03-10T04:57:41.090Z,14.55
2023-03-10T05:00:09.732Z,12.45
2023-03-10T05:02:37.604Z,11.83
2023-03-10T05:05:07.121Z,15.40
2023-03-10T05:07:34.743Z,13.85
2023-03-10T05:10:02.326Z,15.13
2023-03-10T05:12:29.874Z,14.40
2023-03-10T05:14:57.435Z,11.73
2023-03-10T05:17:25.310Z,12.15
2023-03-10T05:19:52.851Z,14.07
2023-03-10T05:22:21.756Z,17.30
2023-03-10T05:24:49.937Z,12.77
2023-03-10T05:27:19.643Z,8.80
2023-03-10T05:29:47.235Z,13.05
2023-03-10T05:32:14.813Z,13.63
2023-03-10T05:34:42.453Z,13.98
2023-03-10T05:37:10.076Z,12.98
2023-03-10T05:39:39.038Z,14.30
2023-03-10T05:42:06.845Z,11.27
2023-03-10T05:44:34.375Z,12.80
2023-03-10T05:47:02.017Z,11.77
2023-03-10T05:49:29.728Z,18.08
2023-03-10T05:51:57.332Z,12.50
2023-03-10T05:54:25.140Z,10.27
2023-03-10T05:56:54.116Z,14.40
2023-03-10T05:59:21.709Z,16.92
2023-03-10T06:01:49.268Z,13.93
2023-03-10T06:04:16.925Z,11.47
2023-03-10T06:06:44.538Z,12.55
2023-03-10T06:09:12.095Z,10.90
2023-03-10T06:11:39.657Z,10.23
2023-03-10T06:14:08.537Z,11.88
2023-03-10T06:16:36.130Z,10.73
2023-03-10T06:19:03.945Z,9.68
2023-03-10T06:21:31.723Z,10.75
2023-03-10T06:24:00.478Z,11.73
2023-03-10T06:26:28.020Z,11.82
2023-03-10T06:28:55.588Z,10.07
2023-03-10T06:31:25.546Z,10.43
2023-03-10T06:33:53.608Z,10.93
2023-03-10T06:36:22.239Z,11.70
2023-03-10T06:38:50.338Z,11.00
2023-03-10T06:41:18.448Z,9.63
2023-03-10T06:43:46.054Z,9.00
2023-03-10T06:46:14.109Z,10.68
2023-03-10T06:48:43.800Z,9.57
2023-03-10T06:51:12.669Z,11.05
2023-03-10T06:53:40.275Z,13.87
2023-03-10T06:56:08.788Z,11.25
2023-03-10T06:58:36.980Z,12.23
2023-03-10T07:01:04.989Z,12.25
2023-03-10T07:03:32.727Z,11.18
2023-03-10T07:06:01.684Z,8.57
2023-03-10T07:08:30.136Z,7.97
2023-03-10T07:10:57.984Z,7.32
2023-03-10T07:13:25.634Z,9.15
2023-03-10T07:15:53.209Z,7.93
2023-03-10T07:18:20.783Z,7.30
2023-03-10T07:20:48.753Z,10.50
2023-03-10T07:23:17.707Z,8.98
2023-03-10T07:25:45.267Z,9.77
2023-03-10T07:28:13.071Z,10.05
2023-03-10T07:30:41.138Z,9.87
2023-03-10T07:33:08.752Z,9.25
2023-03-10T07:35:37.405Z,11.52
2023-03-10T07:38:05.468Z,11.60
2023-03-10T07:40:34.760Z,10.75
2023-03-10T07:43:02.551Z,8.00
2023-03-10T07:45:30.934Z,14.60
2023-03-10T07:47:58.636Z,9.45
2023-03-10T07:50:26.458Z,10.80
2023-03-10T07:52:54.991Z,10.35
2023-03-10T07:55:23.136Z,9.48
2023-03-10T07:57:52.100Z,8.18
2023-03-10T08:00:20.073Z,7.93
2023-03-10T08:02:47.772Z,9.00
2023-03-10T08:05:15.766Z,8.88
2023-03-10T08:07:43.581Z,9.77
2023-03-10T08:10:11.840Z,10.23
2023-03-10T08:12:39.403Z,10.60
2023-03-10T08:15:09.224Z,9.73
2023-03-10T08:17:36.922Z,10.75
2023-03-10T08:20:06.626Z,11.90
2023-03-10T08:22:34.187Z,10.85
2023-03-10T08:25:02.133Z,9.02
2023-03-10T08:27:30.199Z,12.27
2023-03-10T08:29:57.816Z,9.05
2023-03-10T08:32:26.782Z,9.50
2023-03-10T08:34:54.536Z,10.20
2023-03-10T08:37:22.143Z,11.00
2023-03-10T08:39:52.180Z,10.77
2023-03-10T08:42:19.800Z,9.35
2023-03-10T08:44:47.488Z,9.65
2023-03-10T08:47:15.076Z,8.93
2023-03-10T08:49:46.927Z,12.10
2023-03-10T08:52:16.271Z,9.88
2023-03-10T08:54:43.843Z,10.18
2023-03-10T08:57:11.381Z,9.80
2023-03-10T08:59:38.970Z,8.95
2023-03-10T09:02:06.740Z,9.00
2023-03-10T09:04:34.466Z,10.68
2023-03-10T09:07:04.104Z,9.13
2023-03-10T09:09:31.704Z,8.50
2023-03-10T09:11:59.328Z,10.13
2023-03-10T09:14:27.287Z,8.50
2023-03-10T09:16:55.056Z,8.60
2023-03-10T09:19:22.667Z,8.00
2023-03-10T09:21:50.236Z,10.00
2023-03-10T09:24:19.954Z,9.40
2023-03-10T09:26:47.835Z,8.05
2023-03-10T09:29:15.399Z,8.30
2023-03-10T09:31:43.764Z,8.65
2023-03-10T09:34:12.074Z,8.07
2023-03-10T09:36:39.688Z,8.00
2023-03-10T09:39:07.253Z,8.93
2023-03-10T09:41:44.119Z,8.15
2023-03-10T09:44:18.521Z,7.88
2023-03-10T09:46:50.550Z,9.55
2023-03-10T09:49:21.743Z,8.83
2023-03-10T09:51:49.817Z,8.93
2023-03-10T09:54:32.084Z,10.35
2023-03-10T09:57:01.426Z,8.55
2023-03-10T09:59:32.848Z,8.05
2023-03-10T10:02:01.238Z,9.10
2023-03-10T10:04:29.720Z,10.07
2023-03-10T10:06:57.771Z,11.13
2023-03-10T10:09:28.358Z,10.80
2023-03-10T10:11:56.033Z,10.23
2023-03-10T10:14:30.036Z,9.47
2023-03-10T10:17:02.587Z,12.25
2023-03-10T10:19:30.206Z,11.23
2023-03-10T10:22:01.761Z,10.57
2023-03-10T10:24:29.358Z,11.50
2023-03-10T10:26:56.934Z,11.47
2023-03-10T10:29:26.862Z,11.70
2023-03-10T10:32:04.871Z,10.27
2023-03-10T10:34:32.695Z,11.07
2023-03-10T10:37:00.803Z,9.80
2023-03-10T10:39:31.356Z,11.67
2023-03-10T10:42:13.412Z,10.43
2023-03-10T10:44:43.145Z,9.82
2023-03-10T10:47:21.602Z,10.50
2023-03-10T10:49:49.180Z,11.02
2023-03-10T10:52:20.704Z,9.83
2023-03-10T10:54:51.958Z,10.38
2023-03-10T10:57:20.328Z,13.00
2023-03-10T10:59:49.430Z,10.25
2023-03-10T11:02:24.990Z,12.77
2023-03-10T11:04:52.680Z,11.63
2023-03-10T11:07:22.006Z,12.68
2023-03-10T11:09:49.570Z,10.85
2023-03-10T11:12:20.551Z,11.02
2023-03-10T11:14:57.154Z,11.77
2023-03-10T11:17:28.565Z,13.83
2023-03-10T11:19:59.303Z,10.23
2023-03-10T11:22:33.967Z,13.30
2023-03-10T11:25:03.932Z,11.68
2023-03-10T11:27:38.293Z,11.60
2023-03-10T11:30:13.145Z,11.93
2023-03-10T11:32:44.107Z,10.57
2023-03-10T11:35:20.503Z,9.82
2023-03-10T11:37:51.878Z,10.50
2023-03-10T11:40:24.175Z,10.77
2023-03-10T11:42:55.838Z,10.50
2023-03-10T11:45:28.724Z,11.05
2023-03-10T11:48:01.536Z,10.00
2023-03-10T11:50:36.174Z,10.98
2023-03-10T11:53:07.617Z,10.98
2023-03-10T11:55:36.718Z,10.50
2023-03-10T11:58:05.281Z,11.15
2023-03-10T12:00:35.683Z,9.75
2023-03-10T12:03:07.275Z,9.48
2023-03-10T12:05:40.520Z,10.32
2023-03-10T12:08:08.257Z,11.57
2023-03-10T12:10:38.366Z,9.63
2023-03-10T12:13:06.042Z,10.82
2023-03-10T12:15:38.890Z,9.00
2023-03-10T12:18:07.512Z,10.02
2023-03-10T12:20:35.760Z,9.23
2023-03-10T12:23:26.874Z,10.50
2023-03-10T12:25:54.470Z,9.00
2023-03-10T12:28:24.399Z,8.55
2023-03-10T12:30:56.474Z,9.23
2023-03-10T12:33:42.046Z,8.60
2023-03-10T12:36:10.308Z,8.05
2023-03-10T12:38:42.753Z,8.43
2023-03-10T12:41:11.267Z,8.48
2023-03-10T12:43:59.533Z,10.30
2023-03-10T12:46:40.632Z,9.07
2023-03-10T12:49:15.283Z,8.32
2023-03-10T12:51:44.239Z,8.18
2023-03-10T12:54:31.974Z,9.32
2023-03-10T12:57:02.305Z,6.70
2023-03-10T12:59:33.031Z,7.23
2023-03-10T13:02:02.944Z,8.77
2023-03-10T13:04:31.570Z,8.95
2023-03-10T13:07:03.681Z,9.20
2023-03-10T13:09:32.910Z,6.57
2023-03-10T13:12:04.169Z,8.47
2023-03-10T13:14:35.570Z,7.40
2023-03-10T13:17:04.802Z,8.50
2023-03-10T13:19:32.945Z,8.20
2023-03-10T13:22:00.937Z,9.25
2023-03-10T13:24:29.924Z,8.30
2023-03-10T13:27:04.908Z,9.05
2023-03-10T13:29:32.542Z,7.28
2023-03-10T13:32:00.194Z,7.18
2023-03-10T13:34:30.937Z,7.30
2023-03-10T13:37:05.619Z,8.80
2023-03-10T13:39:33.245Z,6.63
2023-03-10T13:42:01.787Z,7.47
2023-03-10T13:44:29.935Z,7.90
2023-03-10T13:46:58.733Z,6.68
2023-03-10T13:49:27.755Z,7.10
2023-03-10T13:51:57.987Z,8.60
2023-03-10T13:54:26.626Z,5.97
2023-03-10T13:56:55.898Z,6.25
2023-03-10T13:59:24.590Z,8.77
2023-03-10T14:01:55.528Z,9.25
2023-03-10T14:04:38.058Z,5.50
2023-03-10T14:07:10.770Z,6.55
2023-03-10T14:09:38.670Z,7.93
2023-03-10T14:12:06.540Z,6.00
2023-03-10T14:14:34.851Z,8.93
2023-03-10T14:17:03.961Z,6.75
2023-03-10T14:19:47.662Z,7.50
2023-03-10T14:22:24.300Z,7.85
2023-03-10T14:24:52.154Z,6.68
2023-03-10T14:27:19.947Z,5.63
2023-03-10T14:29:50.110Z,7.60
2023-03-10T14:32:18.142Z,6.82
2023-03-10T14:34:46.228Z,8.10
2023-03-10T14:37:14.046Z,7.85
2023-03-10T14:39:43.029Z,7.20
2023-03-10T14:42:17.902Z,6.35
2023-03-10T14:44:45.531Z,9.88
2023-03-10T14:47:13.295Z,6.55
2023-03-10T14:49:41.342Z,8.23
2023-03-10T14:52:14.340Z,6.72
2023-03-10T14:54:43.322Z,5.25
2023-03-10T14:57:11.548Z,7.13
2023-03-10T14:59:40.040Z,6.72
2023-03-10T15:02:10.349Z,6.47
2023-03-10T15:04:37.965Z,6.50
2023-03-10T15:07:05.590Z,5.68
2023-03-10T15:09:33.384Z,7.32
2023-03-10T15:12:02.419Z,6.35
2023-03-10T15:14:30.636Z,5.47
2023-03-10T15:16:58.272Z,5.35
2023-03-10T15:19:27.185Z,6.38
2023-03-10T15:21:55.055Z,6.13
2023-03-10T15:24:22.686Z,5.10
2023-03-10T15:26:50.586Z,5.85
2023-03-10T15:29:20.696Z,4.88
2023-03-10T15:31:48.313Z,8.00
2023-03-10T15:34:16.417Z,5.28
2023-03-10T15:36:44.334Z,6.53
2023-03-10T15:39:18.865Z,5.30
2023-03-10T15:41:53.089Z,6.13
2023-03-10T15:44:22.024Z,6.85
2023-03-10T15:46:52.725Z,6.40
2023-03-10T15:49:20.396Z,4.53
2023-03-10T15:51:48.153Z,6.78
2023-03-10T15:54:15.821Z,8.27
2023-03-10T15:56:43.486Z,5.38
2023-03-10T15:59:11.394Z,5.80
2023-03-10T16:01:40.658Z,7.25
2023-03-10T16:04:08.259Z,5.28
2023-03-10T16:06:36.141Z,5.32
2023-03-10T16:09:04.597Z,7.50
2023-03-10T16:11:32.208Z,5.43
2023-03-10T16:13:59.780Z,4.82
2023-03-10T16:16:28.580Z,4.22
2023-03-10T16:18:57.570Z,5.85
2023-03-10T16:21:25.146Z,5.20
2023-03-10T16:23:53.791Z,5.88
2023-03-10T16:26:22.012Z,4.60
2023-03-10T16:28:50.617Z,6.45
2023-03-10T16:31:19.680Z,6.18
2023-03-10T16:33:47.398Z,5.20
2023-03-10T16:36:17.511Z,5.43
2023-03-10T16:38:45.413Z,7.28
2023-03-10T16:41:13.255Z,6.97
2023-03-10T16:43:41.018Z,6.63
2023-03-10T16:46:09.900Z,7.75
2023-03-10T16:48:38.671Z,6.15
2023-03-10T16:51:18.892Z,6.53
2023-03-10T16:53:48.002Z,8.43
2023-03-10T16:56:15.754Z,7.28
2023-03-10T16:58:43.596Z,6.07
2023-03-10T17:01:11.444Z,5.50
2023-03-10T17:03:40.492Z,7.43
2023-03-10T17:06:09.498Z,7.85
2023-03-10T17:08:37.180Z,5.57
2023-03-10T17:11:06.724Z,9.00
2023-03-10T17:13:34.447Z,4.50
2023-03-10T17:16:01.989Z,6.63
2023-03-10T17:18:29.539Z,4.43
2023-03-10T17:20:57.100Z,5.72
2023-03-10T17:23:24.675Z,5.60
2023-03-10T17:25:52.744Z,5.60
2023-03-10T17:28:21.663Z,6.22
2023-03-10T17:30:49.208Z,7.05
2023-03-10T17:33:17.128Z,5.82
2023-03-10T17:35:44.933Z,7.47
2023-03-10T17:38:12.518Z,6.80
2023-03-10T17:40:42.737Z,8.45
2023-03-10T17:43:29.608Z,7.68
2023-03-10T17:45:59.549Z,6.28
2023-03-10T17:48:27.248Z,5.03
2023-03-10T17:50:56.578Z,6.60
2023-03-10T17:53:24.559Z,6.45
2023-03-10T17:55:52.344Z,8.35
2023-03-10T17:58:21.008Z,7.90
2023-03-10T18:00:48.695Z,8.57
2023-03-10T18:03:20.116Z,7.40
2023-03-10T18:05:48.181Z,9.75
2023-03-10T18:08:15.784Z,6.85
2023-03-10T18:10:43.469Z,5.22
2023-03-10T18:13:12.407Z,7.88
2023-03-10T18:15:40.043Z,8.45
2023-03-10T18:18:07.726Z,6.97
2023-03-10T18:20:37.136Z,6.10
2023-03-10T18:23:04.980Z,5.70
2023-03-10T18:25:32.587Z,6.00
2023-03-10T18:28:00.217Z,6.90
2023-03-10T18:30:27.874Z,6.95
2023-03-10T18:32:55.871Z,6.30
2023-03-10T18:35:23.466Z,6.38
2023-03-10T18:37:52.380Z,5.93
2023-03-10T18:40:19.970Z,7.68
2023-03-10T18:42:48.590Z,7.35
2023-03-10T18:45:16.178Z,6.38
2023-03-10T18:47:45.861Z,6.93
2023-03-10T18:50:14.696Z,6.57
2023-03-10T18:52:42.324Z,7.90
2023-03-10T18:55:12.170Z,4.25
2023-03-10T18:57:39.734Z,6.78
2023-03-10T19:00:08.478Z,5.45
2023-03-10T19:02:36.429Z,6.20
2023-03-10T19:05:05.160Z,5.47
2023-03-10T19:07:33.757Z,7.60
2023-03-10T19:10:01.358Z,6.68
2023-03-10T19:12:30.278Z,4.63
2023-03-10T19:14:59.397Z,5.60
2023-03-10T19:17:27.643Z,8.00
2023-03-10T19:19:55.374Z,9.13
2023-03-10T19:22:23.282Z,6.97
2023-03-10T19:24:50.874Z,11.00
2023-03-10T19:27:18.546Z,6.47
2023-03-10T19:29:50.997Z,5.68
2023-03-10T19:32:18.883Z,7.55
2023-03-10T19:34:46.668Z,4.88
2023-03-10T19:37:14.509Z,5.70
2023-03-10T19:39:42.173Z,6.30
2023-03-10T19:42:09.753Z,6.65
2023-03-10T19:44:38.986Z,5.68
2023-03-10T19:47:08.049Z,6.05
2023-03-10T19:49:36.037Z,9.57
2023-03-10T19:52:03.847Z,5.53
2023-03-10T19:54:31.462Z,9.15
2023-03-10T19:56:59.208Z,7.75
2023-03-10T19:59:26.842Z,6.75
2023-03-10T20:01:54.514Z,7.28
2023-03-10T20:04:23.561Z,7.60
2023-03-10T20:06:51.161Z,8.27
2023-03-10T20:09:19.024Z,8.05
2023-03-10T20:11:46.666Z,5.83
2023-03-10T20:14:14.239Z,6.22
2023-03-10T20:16:41.981Z,9.30
2023-03-10T20:19:09.761Z,7.03
2023-03-10T20:21:38.843Z,6.65
2023-03-10T20:24:06.879Z,7.65
2023-03-10T20:26:34.779Z,9.02
2023-03-10T20:29:02.476Z,8.73
2023-03-10T20:31:33.899Z,8.50
2023-03-10T20:34:01.803Z,7.10
2023-03-10T20:36:29.730Z,7.43
2023-03-10T20:38:59.469Z,7.25
2023-03-10T20:41:27.073Z,7.75
2023-03-10T20:43:55.314Z,7.10
2023-03-10T20:46:24.715Z,6.10
2023-03-10T20:48:52.324Z,7.47
2023-03-10T20:51:20.012Z,10.70
2023-03-10T20:53:47.828Z,7.28
2023-03-10T20:56:16.824Z,6.78
2023-03-10T20:58:44.398Z,6.88
2023-03-10T21:01:15.488Z,5.85
2023-03-10T21:03:43.131Z,5.72
2023-03-10T21:06:10.743Z,6.63
2023-03-10T21:08:38.389Z,6.57
2023-03-10T21:11:05.984Z,7.20
2023-03-10T21:13:34.941Z,4.68
2023-03-10T21:16:02.467Z,6.38
2023-03-10T21:18:30.032Z,9.05
2023-03-10T21:20:57.589Z,7.00
2023-03-10T21:23:25.408Z,8.27
2023-03-10T21:25:52.993Z,9.63
2023-03-10T21:28:20.514Z,6.03
2023-03-10T21:30:49.518Z,8.38
2023-03-10T21:33:17.156Z,7.47
2023-03-10T21:35:44.760Z,10.27
2023-03-10T21:38:12.357Z,6.85
2023-03-10T21:40:40.164Z,9.05
2023-03-10T21:43:07.785Z,7.45
2023-03-10T21:45:37.414Z,9.90
2023-03-10T21:48:06.648Z,6.88
2023-03-10T21:50:34.414Z,8.97
2023-03-10T21:53:02.013Z,7.35
2023-03-10T21:55:30.847Z,7.00
2023-03-10T21:57:58.476Z,8.10
2023-03-10T22:00:26.871Z,8.10
2023-03-10T22:02:54.438Z,8.13
2023-03-10T22:05:23.464Z,6.47
2023-03-10T22:07:51.240Z,6.60
2023-03-10T22:10:19.180Z,9.20
2023-03-10T22:12:46.828Z,7.38
2023-03-10T22:15:16.509Z,6.87
2023-03-10T22:17:44.070Z,7.22
2023-03-10T22:20:14.226Z,7.60
2023-03-10T22:22:43.200Z,9.05
2023-03-10T22:25:11.237Z,8.35
2023-03-10T22:27:38.879Z,8.93
2023-03-10T22:30:07.102Z,8.18
2023-03-10T22:32:34.893Z,8.13
2023-03-10T22:35:02.847Z,8.55
2023-03-10T22:37:30.408Z,7.57
2023-03-10T22:39:59.535Z,8.07
2023-03-10T22:42:27.183Z,8.10
2023-03-10T22:44:54.759Z,8.75
2023-03-10T22:47:22.321Z,8.10
2023-03-10T22:49:49.897Z,7.78
2023-03-10T22:52:17.402Z,7.43
2023-03-10T22:54:44.936Z,6.90
2023-03-10T22:57:15.250Z,6.97
2023-03-10T22:59:43.027Z,7.15
2023-03-10T23:02:10.732Z,9.13
2023-03-10T23:04:39.076Z,8.83
2023-03-10T23:07:06.795Z,8.48
2023-03-10T23:09:34.368Z,6.60
2023-03-10T23:12:01.954Z,8.32
2023-03-10T23:14:30.917Z,8.57
2023-03-10T23:16:58.502Z,8.67
2023-03-10T23:19:26.097Z,9.25
2023-03-10T23:21:53.647Z,10.80
2023-03-10T23:24:21.242Z,9.32
2023-03-10T23:26:48.808Z,9.20
2023-03-10T23:29:16.527Z,8.30
2023-03-10T23:31:45.609Z,7.00
2023-03-10T23:34:13.212Z,7.10
2023-03-10T23:36:40.771Z,7.50
2023-03-10T23:39:11.178Z,6.15
2023-03-10T23:41:38.787Z,7.50
2023-03-10T23:44:06.376Z,9.95
2023-03-10T23:46:33.927Z,8.15
2023-03-10T23:49:02.848Z,5.40
2023-03-10T23:51:30.814Z,9.93
2023-03-10T23:53:58.357Z,9.17
2023-03-10T23:56:25.929Z,8.45
2023-03-10T23:58:53.484Z,6.60
